Orto / Ocaso: 06:04 / 18:14 UTC (Datos para LEAX 21-09-2020)

[fuente: ADDS]

METAR:


LEMG 211130Z 18006KT 120V250 CAVOK 28/17 Q1017 NOSIG =
TAF LEMG 211100Z 2112/2212 14008KT CAVOK TX30/2112Z TN20/2204Z BECMG 2118/2120 VRB02KT BECMG 2201/2203 29010KT BECMG 2209/2211 13007KT LEGR 211130Z VRB01KT CAVOK 24/12 Q1020 =
TAF LEGR 210800Z 2109/2209 VRB02KT CAVOK TX28/2115Z TN13/2206Z TEMPO 2116/2119 27010KT LEZL 211130Z 05003KT CAVOK 26/14 Q1018 NOSIG =
TAF LEZL 210800Z 2109/2209 03005KT CAVOK TX31/2116Z TN18/2206Z PROB40 TEMPO 2117/2121 24010KT LEAM 211130Z 20005KT 160V240 CAVOK 25/21 Q1017 =
TAF LEAM 210800Z 2109/2209 VRB03KT CAVOK TX26/2113Z TN20/2206Z PROB40 TEMPO 2112/2117 21010KT PROB30 TEMPO 2123/2207 3000 BR LEBA 211130Z 17002KT CAVOK 26/15 Q1018 =
TAF LEBA 210800Z 2109/2209 VRB03KT CAVOK TX30/2116Z TN16/2206Z PROB40 TEMPO 2116/2119 23010KT LEJR 211130Z 02006KT 330V070 CAVOK 29/16 Q1018 =
TAF LEJR 211100Z 2112/2212 36008KT CAVOK TX31/2115Z TN16/2206Z BECMG 2114/2116 29010KT BECMG 2119/2121 VRB02KT GEML 211130Z 29010KT 260V320 9999 FEW012 27/16 Q1017 =
TAF GEML 210800Z 2109/2209 27007KT CAVOK TX28/2113Z TN21/2205Z LXGB 211123Z 20007KT CAVOK 25/18 Q1017 NOSIG RMK BLU BLU =
TAF LXGB 211036Z 2112/2121 23010KT CAVOK PROB30 TEMPO 2112/2117 20015KT 520002

TAFOR:


TAF LEMG 211100Z 2112/2212 14008KT CAVOK TX30/2112Z TN20/2204Z BECMG 2118/2120 VRB02KT BECMG 2201/2203 29010KT BECMG 2209/2211 13007KT =
TAF LEGR 210800Z 2109/2209 VRB02KT CAVOK TX28/2115Z TN13/2206Z TEMPO 2116/2119 27010KT =
TAF LEZL 210800Z 2109/2209 03005KT CAVOK TX31/2116Z TN18/2206Z PROB40 TEMPO 2117/2121 24010KT =
TAF LEAM 210800Z 2109/2209 VRB03KT CAVOK TX26/2113Z TN20/2206Z PROB40 TEMPO 2112/2117 21010KT PROB30 TEMPO 2123/2207 3000 BR =
TAF LEBA 210800Z 2109/2209 VRB03KT CAVOK TX30/2116Z TN16/2206Z PROB40 TEMPO 2116/2119 23010KT =
TAF LEJR 211100Z 2112/2212 36008KT CAVOK TX31/2115Z TN16/2206Z BECMG 2114/2116 29010KT BECMG 2119/2121 VRB02KT =
TAF GEML 210800Z 2109/2209 27007KT CAVOK TX28/2113Z TN21/2205Z =
TAF LXGB 211036Z 2112/2121 23010KT CAVOK PROB30 TEMPO 2112/2117 20015KT 520002 =

Recuerde que, aunque regularmente actualizada, la información meteorológica aquí presentada no debe ser utilizada para la planificación de vuelos. Si lo desea, puede consultar la información meteorológica adecuada, tanto de aeródromos como en ruta, por las vías oficialmente establecidas en la legislación -> AQUí

Utilizamos "cookies" propias y de terceros para analizar nuestros servicios, medir las audiencias, personalizar el contenido que ofrecemos y mostrar información adaptada a sus intereses mediante la obtención de los datos necesarios para perfilar sus hábitos de navegación e inferir grupos de interés, siempre de modo anónimo. Si continúa utilizando el sitio web AEROCLUBMALAGA.COM, significa que acepta sus términos y condiciones y el uso de "cookies" al utilizar el sitio web y nuestros servicios. Asimismo, podemos utilizar fuentes de datos externas para elaborar estos grupos de interés, así compartir los análisis de navegación y los grupos de interés inferidos con terceros con el objetivo de personalizar los contenidos. Para obtener más información sobre las cookies que utilizamos y cómo eliminarlas, consulte nuestra política de privacidad.

Acepto las cookies de esta página web.
EU Cookie Directive plugin by www.channeldigital.co.uk